Klemme/'s Corner

Nearby METAR Reports

 

KSJC - San Jose, California, USA
Distance from station: NE 9mi, 14km
Updated: Sat, Jun-23-2018 3:53am EDT
Clear
Clear
 Wind from WNW
Wind: WNW 5 mph , 7 km/h
Temperature: 64°F , 18°C
Dew Point: 54°F , 12°C
Humidity: 68%
Barometer: 29.80 inHg , 1009.1 hPa
Clouds: Clear
Visibility: 10 miles , 16 km
2018/06/23 07:53 KSJC 230753Z AUTO 29004KT 10SM CLR 18/12 A2980 RMK AO2 SLP092 T01780122 403170139
KNUQ - Moffett Nas/Mtn, California, USA
Distance from station: N 9mi, 14km
Updated: Sat, Jun-23-2018 3:56am EDT
Clear
Clear
 Wind from calm
Wind: Calm
Temperature: 64°F , 18°C
Dew Point: 57°F , 14°C
Humidity: 78%
Barometer: 29.81 inHg , 1009.5 hPa
Clouds: Clear
Visibility: 10 miles , 16 km
2018/06/23 07:56 KNUQ 230756Z AUTO 00000KT 10SM CLR 18/14 A2981 RMK AO2 SLP097 T01780139 402890139
 
KPAO - Palo Alto, California, USA
Distance from station: NNW 14mi, 23km
Updated: Fri, Jun-22-2018 11:47pm EDT
NOT Current
Clear
Clear
 Wind from WNW
Wind: WNW 8 mph , 13 km/h
Temperature: 66°F , 19°C
Dew Point: 57°F , 14°C
Humidity: 73%
Barometer: 29.81 inHg , 1009.5 hPa
Clouds: Clear
Visibility: 10 miles , 16 km
2018/06/23 03:47 KPAO 230347Z 30007KT 10SM SKC 19/14 A2981
KRHV - San Jose/Reid, California, USA
Distance from station: ENE 12mi, 19km
Updated: Sat, Jun-23-2018 12:47am EDT
NOT Current
Clear
Clear
 Wind from WNW
Wind: WNW 7 mph , 11 km/h
Temperature: 72°F , 22°C
Dew Point: 54°F , 12°C
Humidity: 53%
Barometer: 29.80 inHg , 1009.1 hPa
Clouds: Clear
Visibility: 10 miles , 16 km
2018/06/23 04:47 KRHV 230447Z 30006KT 10SM SKC 22/12 A2980 RMK LAST
 
KOAK - Oakland, California, USA
Distance from station: NNW 31mi, 50km
Updated: Sat, Jun-23-2018 3:53am EDT
Clear
Clear
 Wind from WNW
Wind: WNW 8 mph , 13 km/h
Temperature: 59°F , 15°C
Dew Point: 54°F , 12°C
Humidity: 82%
Barometer: 29.80 inHg , 1009.1 hPa
Clouds: Clear
Visibility: 10 miles , 16 km
2018/06/23 07:53 KOAK 230753Z 30007KT 10SM CLR 15/12 A2980 RMK AO2 SLP091 T01500117 402670111
KSQL - San Carlos Airpo, California, USA
Distance from station: NW 21mi, 34km
Updated: Sat, Jun-23-2018 4:00am EDT
Clear
Clear
 Wind from calm
Wind: Calm
Temperature: 63°F , 17°C
Dew Point: 50°F , 10°C
Humidity: 64%
Barometer: 29.80 inHg , 1009.1 hPa
Clouds: Clear
Visibility: 10 miles , 16 km
2018/06/23 08:00 KSQL 230800Z AUTO 00000KT 10SM CLR 17/10 A2980 RMK AO2
 
KSFO - San Francisco, California, USA
Distance from station: NW 30mi, 49km
Updated: Sat, Jun-23-2018 3:56am EDT
Clear
Clear
 Wind from WNW
Wind: WNW 10 mph , 17 km/h
Temperature: 61°F , 16°C
Dew Point: 48°F , 9°C
Humidity: 63%
Barometer: 29.79 inHg , 1008.8 hPa
Clouds: Clear
Visibility: 10 miles , 16 km
2018/06/23 07:56 KSFO 230756Z 29009KT 10SM CLR 16/09 A2979 RMK AO2 SLP089 T01610089 402720133
KE16 - San Martin, California, USA
Distance from station: ESE 27mi, 43km
Updated: Sat, Jun-23-2018 3:50am EDT
Clear
Clear
 Wind from calm
Wind: Calm
Temperature: 63°F , 17°C
Dew Point: 50°F , 10°C
Humidity: 64%
Barometer: 29.83 inHg , 1010.2 hPa
Clouds: Clear
Visibility: 10 miles , 16 km
2018/06/23 07:50 KE16 230750Z AUTO 00000KT 10SM CLR 17/10 A2983 RMK AO2
 
KWVI - Watsonville, California, USA
Distance from station: SSE 27mi, 44km
Updated: Sat, Jun-23-2018 3:53am EDT
Clear
Clear
 Wind from calm
Wind: Calm
Temperature: 54°F , 12°C
Dew Point: 52°F , 11°C
Humidity: 94%
Barometer: 29.82 inHg , 1009.8 hPa
Clouds: Clear
Visibility: 7 miles , 11 km
2018/06/23 07:53 KWVI 230753Z AUTO 00000KT 7SM CLR 12/11 A2982 RMK AO2 SLP098 T01220106 402390083
KHAF - Half Moon Bay, California, USA
Distance from station: WNW 31mi, 50km
Updated: Sat, Jun-23-2018 4:00am EDT
Mist, Clear
Mist, Clear
 Wind from calm
Wind: Calm
Temperature: 48°F , 9°C
Dew Point: 46°F , 8°C
Humidity: 94%
Barometer: 29.84 inHg , 1010.5 hPa
Summary: Mist
Clouds: Clear
Visibility: 5 miles , 8 km
2018/06/23 08:00 KHAF 230800Z AUTO 00000KT 5SM BR CLR 09/08 A2984 RMK AO2
 
KHWD - Hayward, California, USA
Distance from station: N 28mi, 44km
Updated: Sat, Jun-23-2018 3:54am EDT
Clear
Clear
 Wind from NW
Wind: NW 3 mph , 6 km/h
Temperature: 63°F , 17°C
Dew Point: 52°F , 11°C
Humidity: 68%
Barometer: 29.80 inHg , 1009.1 hPa
Clouds: Clear
Visibility: 10 miles , 16 km
2018/06/23 07:54 KHWD 230754Z 32003KT 10SM CLR 17/11 A2980 RMK AO2 SLP099 T01670111 402940128
KLVK - Livermore, California, USA
Distance from station: NNE 31mi, 51km
Updated: Sat, Jun-23-2018 3:53am EDT
Clear
Clear
 Wind from calm
Wind: Calm
Temperature: 70°F , 21°C
Dew Point: 46°F , 8°C
Humidity: 43%
Barometer: 29.79 inHg , 1008.8 hPa
Clouds: Clear
Visibility: 10 miles , 16 km
2018/06/23 07:53 KLVK 230753Z AUTO 00000KT 10SM CLR 21/08 A2979 RMK AO2 SLP082 T02110078 403720122